Time;durP1;ratioP1;P1;durP2;ratioP2;P2;SDS_P1;SDS_P2;PMS_P1;PMS_P2;Temp;Humidity;BMP_temperature;BMP_pressure;BME280_temperature;BME280_humidity;BME280_pressure;Samples;Min_cycle;Max_cycle;Signal;HPM_P1;HPM_P2
2023/06/25 00:01:51;;;;;;;2.47;0.65;;;;;;;22.91;43.20;100866.88;5064398;28;20041;-74
2023/06/25 00:04:18;;;;;;;3.08;0.68;;;;;;;22.99;43.23;100868.47;5069983;28;20048;-74
2023/06/25 00:06:44;;;;;;;1.52;0.73;;;;;;;23.04;43.14;100865.97;5060916;28;20078;-73
2023/06/25 00:09:09;;;;;;;1.58;0.50;;;;;;;23.00;42.97;100867.44;5060379;28;20125;-73
2023/06/25 00:11:35;;;;;;;1.77;0.80;;;;;;;22.91;43.28;100855.44;5058442;28;20127;-73
2023/06/25 00:14:02;;;;;;;1.40;0.57;;;;;;;22.82;44.52;100858.34;5067081;28;20493;-73
2023/06/25 00:16:29;;;;;;;2.60;1.05;;;;;;;22.56;44.88;100860.34;5059353;28;20113;-74
2023/06/25 00:18:56;;;;;;;1.75;0.73;;;;;;;22.43;45.61;100859.38;5065862;28;20044;-73
2023/06/25 00:21:23;;;;;;;4.03;0.50;;;;;;;22.30;45.69;100859.44;5070106;28;20135;-75
2023/06/25 00:23:53;;;;;;;1.45;0.50;;;;;;;22.17;46.31;100860.34;5081976;28;20048;-74
2023/06/25 00:26:18;;;;;;;3.15;0.70;;;;;;;22.10;47.28;100853.44;5064511;28;20060;-74
2023/06/25 00:28:45;;;;;;;2.80;0.50;;;;;;;21.99;47.62;100852.22;5068440;28;20856;-73
2023/06/25 00:31:12;;;;;;;1.30;0.80;;;;;;;21.91;48.42;100849.78;5074991;28;20030;-73
2023/06/25 00:33:39;;;;;;;0.82;0.50;;;;;;;21.79;48.38;100840.84;5067682;28;20060;-74
2023/06/25 00:36:11;;;;;;;2.45;0.40;;;;;;;21.68;48.83;100844.16;5072035;28;20090;-74
2023/06/25 00:38:38;;;;;;;1.67;0.50;;;;;;;21.66;49.08;100846.22;5072873;28;20040;-74
2023/06/25 00:41:11;;;;;;;1.23;0.70;;;;;;;21.62;49.23;100842.34;5075109;28;20134;-74
2023/06/25 00:43:41;;;;;;;1.20;0.68;;;;;;;21.48;49.42;100845.00;5068921;28;20121;-74
2023/06/25 00:46:15;;;;;;;1.60;0.57;;;;;;;21.33;50.99;100840.94;5076440;28;20040;-74
2023/06/25 00:48:45;;;;;;;1.45;0.65;;;;;;;21.15;50.95;100838.91;5072723;28;20028;-74
2023/06/25 00:51:17;;;;;;;2.55;0.57;;;;;;;20.97;51.30;100830.75;5069322;28;20523;-74
2023/06/25 00:53:45;;;;;;;1.10;0.57;;;;;;;20.91;51.79;100839.50;5074189;28;20032;-74
2023/06/25 00:56:11;;;;;;;1.02;0.68;;;;;;;20.84;52.11;100835.03;5075149;28;20115;-74
2023/06/25 00:58:38;;;;;;;1.83;0.75;;;;;;;20.92;52.13;100838.50;5077214;28;20154;-74
2023/06/25 01:01:15;;;;;;;2.78;0.65;;;;;;;20.83;52.47;100832.56;5074703;28;20019;-74
2023/06/25 01:03:54;;;;;;;1.10;0.70;;;;;;;20.78;52.48;100833.22;5074587;28;20031;-74
2023/06/25 01:06:35;;;;;;;1.80;0.70;;;;;;;20.76;52.61;100829.13;5068236;28;20053;-74
2023/06/25 01:09:01;;;;;;;2.20;0.45;;;;;;;20.79;51.97;100821.59;5068428;28;20028;-74
2023/06/25 01:11:30;;;;;;;1.48;0.50;;;;;;;20.79;52.48;100826.91;5066388;28;20043;-74
2023/06/25 01:13:56;;;;;;;0.85;0.40;;;;;;;20.77;52.79;100826.28;5057997;28;20032;-74
2023/06/25 01:16:25;;;;;;;1.52;0.40;;;;;;;20.73;53.39;100822.41;5069011;28;20032;-74
2023/06/25 01:18:51;;;;;;;1.65;0.50;;;;;;;20.63;53.95;100831.75;5070809;28;20037;-74
2023/06/25 01:21:26;;;;;;;1.80;0.50;;;;;;;20.59;53.61;100826.06;5068636;28;20052;-74
2023/06/25 01:23:53;;;;;;;1.00;0.60;;;;;;;20.59;53.99;100826.06;5065254;28;20574;-74
2023/06/25 01:26:18;;;;;;;1.10;0.45;;;;;;;20.57;54.23;100820.13;5067547;28;20126;-74
2023/06/25 01:28:44;;;;;;;1.13;0.55;;;;;;;20.46;55.13;100826.84;5062892;28;20069;-74
2023/06/25 01:31:09;;;;;;;1.58;0.60;;;;;;;20.35;55.30;100827.38;5073094;28;20058;-74
2023/06/25 01:33:35;;;;;;;1.98;0.60;;;;;;;20.21;55.61;100828.38;5069728;28;20041;-74
2023/06/25 01:36:01;;;;;;;1.10;0.38;;;;;;;20.14;55.90;100836.28;5069655;28;20087;-74
2023/06/25 01:38:27;;;;;;;1.10;0.40;;;;;;;20.11;56.38;100833.22;5068291;28;20035;-74
2023/06/25 01:40:52;;;;;;;1.70;0.50;;;;;;;19.99;56.16;100825.03;5071153;28;20032;-74
2023/06/25 01:43:18;;;;;;;0.90;0.40;;;;;;;19.90;56.19;100831.50;5065710;28;20123;-74
2023/06/25 01:45:43;;;;;;;1.35;0.47;;;;;;;19.86;56.38;100825.78;5074172;28;20020;-74
2023/06/25 01:48:09;;;;;;;1.48;0.50;;;;;;;19.89;56.67;100812.16;5064939;28;20032;-74
2023/06/25 01:50:35;;;;;;;3.28;0.60;;;;;;;19.88;57.25;100828.22;5065799;28;20028;-74
2023/06/25 01:53:00;;;;;;;1.02;0.40;;;;;;;19.77;57.87;100818.22;5072535;28;20032;-75
2023/06/25 01:55:26;;;;;;;2.50;0.52;;;;;;;19.73;58.06;100827.56;5073781;28;20035;-74
2023/06/25 01:57:51;;;;;;;1.05;0.43;;;;;;;19.70;58.37;100823.47;5071360;28;20021;-75
2023/06/25 02:00:17;;;;;;;0.85;0.50;;;;;;;19.69;58.48;100813.91;5077249;28;20396;-75
2023/06/25 02:02:43;;;;;;;1.00;0.50;;;;;;;19.76;57.92;100817.41;5067626;28;20032;-75
2023/06/25 02:05:09;;;;;;;8.90;0.85;;;;;;;19.91;57.45;100814.63;5070542;28;20091;-75
2023/06/25 02:07:34;;;;;;;0.88;0.47;;;;;;;19.84;57.16;100816.44;5068324;28;20565;-74
2023/06/25 02:10:00;;;;;;;1.85;0.40;;;;;;;19.77;57.52;100810.28;5059083;28;20381;-75
2023/06/25 02:12:25;;;;;;;1.58;0.60;;;;;;;19.86;57.86;100814.38;5064522;28;20124;-74
2023/06/25 02:14:51;;;;;;;1.00;0.50;;;;;;;19.85;58.75;100818.03;5068166;28;20032;-75
2023/06/25 02:17:16;;;;;;;1.00;0.50;;;;;;;19.79;59.49;100819.66;5070525;28;20182;-74
2023/06/25 02:19:41;;;;;;;1.17;0.70;;;;;;;19.62;59.49;100817.53;5065572;28;20024;-74
2023/06/25 02:22:07;;;;;;;1.38;0.73;;;;;;;19.43;59.44;100817.19;5068695;28;20028;-76
2023/06/25 02:24:32;;;;;;;1.33;0.90;;;;;;;19.35;60.55;100808.63;5065971;28;20525;-75
2023/06/25 02:26:58;;;;;;;2.75;1.27;;;;;;;19.21;61.04;100812.97;5062084;28;20049;-75
2023/06/25 02:29:23;;;;;;;5.07;1.10;;;;;;;19.10;61.66;100810.84;5062982;28;20472;-75
2023/06/25 02:31:49;;;;;;;1.42;0.98;;;;;;;19.05;62.09;100813.25;5067165;28;20040;-75
2023/06/25 02:34:16;;;;;;;1.35;0.80;;;;;;;18.99;62.46;100819.28;5073302;28;20079;-75
2023/06/25 02:36:42;;;;;;;2.30;0.95;;;;;;;18.88;62.64;100821.47;5061409;28;20032;-75
2023/06/25 02:39:08;;;;;;;1.30;0.70;;;;;;;18.78;62.91;100826.25;5078081;28;20027;-75
2023/06/25 02:41:34;;;;;;;3.38;1.30;;;;;;;18.70;62.89;100825.56;5064867;28;20025;-75
2023/06/25 02:43:59;;;;;;;1.40;0.82;;;;;;;18.66;62.54;100824.28;5072721;28;20043;-75
2023/06/25 02:46:24;;;;;;;1.63;0.88;;;;;;;18.58;62.10;100818.09;5071772;28;20070;-75
2023/06/25 02:48:50;;;;;;;4.15;1.33;;;;;;;18.62;61.85;100815.94;5071601;28;20068;-75
2023/06/25 02:51:16;;;;;;;1.60;0.85;;;;;;;18.66;61.81;100829.56;5060650;28;20043;-74
2023/06/25 02:53:41;;;;;;;3.90;1.13;;;;;;;18.54;62.01;100822.13;5062566;28;20024;-75
2023/06/25 02:56:07;;;;;;;2.28;1.00;;;;;;;18.53;62.21;100819.66;5064939;28;20380;-75
2023/06/25 02:58:32;;;;;;;3.65;1.67;;;;;;;18.58;62.50;100827.84;5066072;28;20033;-75
2023/06/25 03:00:58;;;;;;;2.92;1.65;;;;;;;18.52;62.98;100826.75;5070777;28;20047;-75
2023/06/25 03:03:23;;;;;;;2.30;1.67;;;;;;;18.53;63.59;100819.66;5053386;28;20499;-75
2023/06/25 03:05:49;;;;;;;5.88;1.08;;;;;;;18.48;63.46;100817.59;5067786;28;20047;-75
2023/06/25 03:08:15;;;;;;;4.78;1.02;;;;;;;18.46;63.72;100824.88;5060580;28;20047;-75
2023/06/25 03:10:40;;;;;;;1.55;1.13;;;;;;;18.50;64.54;100830.59;5064151;28;20032;-75
2023/06/25 03:13:06;;;;;;;4.53;2.03;;;;;;;18.42;64.57;100828.91;5072050;28;20063;-75
2023/06/25 03:15:31;;;;;;;5.07;1.20;;;;;;;18.45;64.45;100832.97;5060158;28;20113;-75
2023/06/25 03:17:57;;;;;;;2.95;1.23;;;;;;;18.40;63.71;100825.66;5069248;28;20510;-75
2023/06/25 03:20:23;;;;;;;3.13;1.30;;;;;;;18.45;64.21;100825.06;5065362;28;20472;-75
2023/06/25 03:22:49;;;;;;;3.35;1.52;;;;;;;18.40;65.21;100836.19;5071045;28;20070;-75
2023/06/25 03:25:15;;;;;;;4.65;1.80;;;;;;;18.30;66.01;100837.50;5071818;28;20033;-75
2023/06/25 03:27:41;;;;;;;2.20;1.55;;;;;;;18.17;66.38;100836.34;5060174;28;20180;-75
2023/06/25 03:30:07;;;;;;;2.22;1.45;;;;;;;18.12;67.17;100845.78;5070768;28;20440;-75
2023/06/25 03:32:33;;;;;;;4.05;1.15;;;;;;;18.08;67.41;100847.97;5066872;28;20032;-75
2023/06/25 03:34:59;;;;;;;2.95;1.20;;;;;;;18.00;66.52;100844.63;5069320;28;20597;-75
2023/06/25 03:37:24;;;;;;;3.30;1.33;;;;;;;18.01;66.85;100848.88;5068518;28;20464;-75
2023/06/25 03:39:50;;;;;;;3.20;1.75;;;;;;;17.91;66.88;100846.56;5067622;28;20040;-75
2023/06/25 03:42:15;;;;;;;3.58;1.00;;;;;;;17.70;67.07;100841.19;5063032;28;20075;-75
2023/06/25 03:44:51;;;;;;;2.00;1.10;;;;;;;17.64;67.10;100840.06;5069702;28;20035;-75
2023/06/25 03:47:16;;;;;;;1.92;1.20;;;;;;;17.73;67.47;100835.56;5066403;28;20036;-75
2023/06/25 03:49:42;;;;;;;4.32;1.15;;;;;;;17.88;67.89;100837.19;5073128;28;20031;-75
2023/06/25 03:52:12;;;;;;;10.27;1.50;;;;;;;17.93;68.63;100843.75;5070799;28;20037;-75
2023/06/25 03:54:38;;;;;;;2.65;1.40;;;;;;;17.87;69.12;100850.56;5073005;28;20143;-76
2023/06/25 03:57:04;;;;;;;1.75;1.10;;;;;;;17.80;69.02;100847.84;5069955;28;20376;-75
2023/06/25 03:59:31;;;;;;;6.30;1.13;;;;;;;17.85;69.04;100842.03;5069995;28;20471;-75
2023/06/25 04:01:57;;;;;;;2.17;1.00;;;;;;;17.75;68.73;100847.56;5070137;28;20487;-75
2023/06/25 04:04:24;;;;;;;1.88;1.02;;;;;;;17.61;69.13;100847.50;5067095;28;20448;-75
2023/06/25 04:06:49;;;;;;;3.58;1.15;;;;;;;17.81;69.71;100846.03;5069627;28;20032;-75
2023/06/25 04:09:15;;;;;;;1.75;1.10;;;;;;;17.90;68.49;100837.03;5064739;28;20186;-75
2023/06/25 04:11:41;;;;;;;2.28;1.05;;;;;;;17.99;68.63;100838.53;5067504;28;20484;-75
2023/06/25 04:14:06;;;;;;;2.10;1.20;;;;;;;18.17;68.41;100835.50;5067216;28;20036;-75
2023/06/25 04:16:32;;;;;;;1.95;1.10;;;;;;;18.26;68.01;100833.59;5067374;28;20024;-75
2023/06/25 04:18:58;;;;;;;1.92;1.17;;;;;;;18.39;68.60;100836.38;5067055;28;20024;-75
2023/06/25 04:21:25;;;;;;;4.00;1.15;;;;;;;18.60;69.05;100836.41;5056937;28;20052;-75
2023/06/25 04:23:50;;;;;;;2.40;1.20;;;;;;;18.77;69.24;100826.44;5066633;28;20037;-75
2023/06/25 04:26:15;;;;;;;1.75;1.02;;;;;;;18.84;69.69;100832.59;5070987;28;20043;-74
2023/06/25 04:28:41;;;;;;;1.92;1.10;;;;;;;18.93;69.47;100835.91;5057662;28;20055;-75
2023/06/25 04:31:06;;;;;;;3.08;1.10;;;;;;;19.03;69.71;100839.03;5059860;28;20028;-74
2023/06/25 04:33:33;;;;;;;2.20;1.05;;;;;;;19.15;69.33;100829.59;5072780;28;20082;-75
2023/06/25 04:35:58;;;;;;;4.70;1.20;;;;;;;19.20;68.40;100830.66;5053462;28;20484;-73
2023/06/25 04:38:24;;;;;;;3.67;1.58;;;;;;;18.95;67.30;100833.88;5068372;28;20075;-68
2023/06/25 04:40:49;;;;;;;3.40;1.40;;;;;;;18.76;67.37;100830.09;5067823;28;20020;-68
2023/06/25 04:43:15;;;;;;;2.40;1.30;;;;;;;18.73;66.49;100826.00;5073864;28;20468;-69
2023/06/25 04:45:41;;;;;;;1.60;1.10;;;;;;;18.72;66.31;100834.09;5069507;28;20420;-68
2023/06/25 04:48:07;;;;;;;2.17;1.00;;;;;;;18.74;66.41;100832.91;5074193;28;20040;-68
2023/06/25 04:50:32;;;;;;;2.42;1.00;;;;;;;18.76;65.78;100836.19;5071676;28;20045;-68
2023/06/25 04:52:58;;;;;;;1.95;1.13;;;;;;;18.77;64.97;100837.81;5068005;28;20039;-68
2023/06/25 04:55:23;;;;;;;1.95;0.93;;;;;;;18.91;64.38;100833.44;5059783;28;20032;-68
2023/06/25 04:57:49;;;;;;;3.10;1.00;;;;;;;19.17;63.99;100830.22;5068980;28;20047;-69
2023/06/25 05:00:15;;;;;;;1.63;0.90;;;;;;;19.33;63.26;100831.75;5072092;28;20024;-69
2023/06/25 05:02:40;;;;;;;2.00;1.17;;;;;;;19.32;62.75;100840.69;5074464;28;20036;-69
2023/06/25 05:05:06;;;;;;;2.13;1.23;;;;;;;19.43;62.84;100843.59;5070757;28;20450;-67
2023/06/25 05:07:31;;;;;;;1.48;0.82;;;;;;;19.43;62.94;100848.06;5077265;28;20380;-68
2023/06/25 05:09:57;;;;;;;1.45;0.98;;;;;;;19.33;62.91;100843.16;5056929;28;20031;-68
2023/06/25 05:12:22;;;;;;;2.05;1.17;;;;;;;19.44;63.14;100844.41;5069489;28;20055;-68
2023/06/25 05:14:48;;;;;;;2.45;1.33;;;;;;;19.61;62.50;100848.44;5069004;28;20087;-68
2023/06/25 05:17:13;;;;;;;2.25;0.88;;;;;;;19.70;62.17;100844.63;5068582;28;20071;-68
2023/06/25 05:19:39;;;;;;;4.05;1.33;;;;;;;19.70;61.74;100847.28;5066248;28;20481;-68
2023/06/25 05:22:05;;;;;;;3.38;1.80;;;;;;;19.75;61.99;100842.22;5065874;28;20152;-68
2023/06/25 05:24:30;;;;;;;1.42;0.93;;;;;;;19.68;61.79;100846.66;5069802;28;20032;-68
2023/06/25 05:26:56;;;;;;;1.90;1.35;;;;;;;19.81;61.77;100841.44;5071741;28;20562;-68
2023/06/25 05:29:21;;;;;;;2.25;1.20;;;;;;;19.84;61.71;100840.22;5082555;28;20035;-69
2023/06/25 05:31:47;;;;;;;1.40;1.02;;;;;;;19.83;62.46;100838.59;5088988;28;20027;-68
2023/06/25 05:34:12;;;;;;;3.40;1.25;;;;;;;19.99;61.81;100832.13;5086885;28;20031;-68
2023/06/25 05:36:38;;;;;;;1.25;0.57;;;;;;;20.15;61.08;100835.28;5088509;28;20396;-68
2023/06/25 05:39:03;;;;;;;1.52;1.00;;;;;;;20.44;60.72;100838.63;5075587;28;20032;-70
2023/06/25 05:41:28;;;;;;;3.67;1.17;;;;;;;20.46;60.35;100848.00;5070006;28;20499;-70
2023/06/25 05:43:54;;;;;;;2.67;1.30;;;;;;;20.34;60.07;100844.28;5076273;28;20027;-70
2023/06/25 05:46:19;;;;;;;2.63;1.23;;;;;;;20.16;60.24;100841.38;5076164;28;20562;-71
2023/06/25 05:48:45;;;;;;;2.83;1.05;;;;;;;20.30;60.08;100840.41;5072553;28;20085;-70
2023/06/25 05:51:10;;;;;;;1.55;1.10;;;;;;;20.48;60.01;100845.16;5066980;28;20040;-70
2023/06/25 05:53:43;;;;;;;2.28;1.08;;;;;;;20.59;59.24;100839.28;5068907;28;20457;-69
2023/06/25 05:56:09;;;;;;;2.70;1.38;;;;;;;20.73;59.08;100832.19;5083131;28;20043;-71
2023/06/25 05:58:37;;;;;;;4.15;1.52;;;;;;;20.86;58.51;100846.22;5079566;28;20032;-69
2023/06/25 06:01:04;;;;;;;2.13;0.88;;;;;;;21.03;58.25;100843.19;5086480;28;20105;-69
2023/06/25 06:03:29;;;;;;;1.52;0.80;;;;;;;21.28;57.61;100844.22;5088740;28;20032;-69
2023/06/25 06:05:57;;;;;;;1.55;1.10;;;;;;;21.44;58.01;100833.19;5091455;28;20131;-69
2023/06/25 06:08:22;;;;;;;3.95;1.08;;;;;;;21.43;57.93;100836.88;5089001;28;20039;-69
2023/06/25 06:10:48;;;;;;;1.60;0.88;;;;;;;21.53;57.51;100837.25;5086963;28;20035;-69
2023/06/25 06:13:14;;;;;;;2.17;1.15;;;;;;;21.85;58.04;100840.03;5085875;28;20028;-68
2023/06/25 06:15:40;;;;;;;1.40;0.77;;;;;;;21.89;56.99;100835.94;5085610;28;20036;-69
2023/06/25 06:18:05;;;;;;;2.22;0.95;;;;;;;22.06;56.72;100838.97;5088968;28;20103;-69
2023/06/25 06:20:31;;;;;;;1.95;0.98;;;;;;;22.18;55.78;100832.78;5090625;28;20492;-69
2023/06/25 06:22:58;;;;;;;3.10;1.50;;;;;;;22.25;55.78;100839.88;5088742;28;20032;-69
2023/06/25 06:25:24;;;;;;;1.92;0.80;;;;;;;22.54;55.47;100836.66;5091323;28;20046;-69
2023/06/25 06:27:49;;;;;;;1.55;0.82;;;;;;;22.49;54.87;100841.78;5079704;28;20115;-69
2023/06/25 06:30:15;;;;;;;1.83;0.75;;;;;;;22.52;54.70;100836.06;5087813;28;20040;-69
2023/06/25 06:32:40;;;;;;;1.10;0.80;;;;;;;22.56;54.54;100837.25;5090489;28;20372;-69
2023/06/25 06:35:06;;;;;;;3.42;1.00;;;;;;;22.61;54.06;100831.31;5087858;28;20050;-69
2023/06/25 06:37:31;;;;;;;1.63;0.95;;;;;;;22.75;54.06;100830.16;5086946;28;20020;-69
2023/06/25 06:39:58;;;;;;;1.77;0.70;;;;;;;22.92;53.22;100825.19;5090917;28;20024;-68
2023/06/25 06:42:23;;;;;;;1.67;0.90;;;;;;;23.00;53.26;100827.56;5079398;28;20424;-69
2023/06/25 06:44:49;;;;;;;4.15;1.00;;;;;;;23.13;52.74;100832.78;5090361;28;20024;-69
2023/06/25 06:47:14;;;;;;;1.90;1.00;;;;;;;23.05;53.37;100830.38;5085218;28;20057;-69
2023/06/25 06:49:39;;;;;;;2.95;0.90;;;;;;;23.18;53.34;100827.59;5090446;28;20031;-68
2023/06/25 06:52:05;;;;;;;3.35;1.15;;;;;;;23.16;52.87;100827.81;5087424;28;20028;-68
2023/06/25 06:54:30;;;;;;;1.10;0.80;;;;;;;23.28;52.62;100817.28;5090207;28;20124;-69
2023/06/25 06:56:56;;;;;;;1.80;0.80;;;;;;;23.51;52.34;100819.31;5079836;28;20123;-68
2023/06/25 06:59:22;;;;;;;4.18;1.15;;;;;;;23.49;52.15;100821.38;5086873;28;20047;-68
2023/06/25 07:01:47;;;;;;;2.10;1.05;;;;;;;23.50;51.45;100821.16;5085694;28;20039;-69
2023/06/25 07:04:12;;;;;;;3.47;1.42;;;;;;;23.70;51.25;100828.13;5088542;28;20045;-69
2023/06/25 07:06:38;;;;;;;1.85;1.02;;;;;;;23.79;50.46;100824.13;5090201;28;20524;-68
2023/06/25 07:09:03;;;;;;;1.95;0.80;;;;;;;24.11;50.59;100822.91;5088339;28;20067;-69
2023/06/25 07:11:29;;;;;;;1.35;0.68;;;;;;;24.25;49.86;100823.56;5087683;28;20024;-69
2023/06/25 07:13:54;;;;;;;3.17;1.02;;;;;;;24.14;49.37;100819.78;5088005;28;20023;-69
2023/06/25 07:16:20;;;;;;;1.65;1.20;;;;;;;24.19;49.12;100816.44;5090557;28;20024;-70
2023/06/25 07:18:45;;;;;;;4.25;0.90;;;;;;;24.33;48.93;100817.13;5087647;28;20093;-69
2023/06/25 07:21:11;;;;;;;1.40;0.90;;;;;;;24.70;48.84;100823.94;5083615;28;20047;-69
2023/06/25 07:23:36;;;;;;;2.72;1.08;;;;;;;24.91;47.94;100814.59;5086220;28;20036;-70
2023/06/25 07:26:02;;;;;;;3.90;1.10;;;;;;;24.87;47.69;100813.44;5080190;28;20040;-70
2023/06/25 07:28:28;;;;;;;1.15;0.70;;;;;;;25.15;47.62;100815.44;5087288;28;20036;-69
2023/06/25 07:30:53;;;;;;;1.80;0.90;;;;;;;25.26;47.38;100806.63;5086258;28;20031;-69
2023/06/25 07:33:19;;;;;;;3.80;1.00;;;;;;;25.60;47.22;100809.47;5090436;28;20051;-69
2023/06/25 07:35:44;;;;;;;1.27;0.95;;;;;;;25.76;46.95;100812.25;5084499;28;20467;-69
2023/06/25 07:38:10;;;;;;;2.33;1.20;;;;;;;25.99;47.36;100806.03;5085052;28;20036;-68
2023/06/25 07:40:35;;;;;;;2.03;1.15;;;;;;;26.30;47.13;100801.25;5088151;28;20028;-69
2023/06/25 07:43:02;;;;;;;1.80;0.90;;;;;;;26.26;46.75;100805.44;5064165;28;20465;-69
2023/06/25 07:45:28;;;;;;;1.67;1.10;;;;;;;26.24;46.28;100799.53;5089519;28;20433;-67
2023/06/25 07:47:53;;;;;;;2.72;1.00;;;;;;;26.11;46.35;100790.75;5084357;28;20183;-68
2023/06/25 07:50:19;;;;;;;1.10;0.80;;;;;;;26.13;46.37;100791.34;5074015;28;20555;-68
2023/06/25 07:52:44;;;;;;;2.55;1.00;;;;;;;26.42;46.11;100796.69;5081215;28;20040;-68
2023/06/25 07:55:10;;;;;;;3.42;1.38;;;;;;;26.52;46.03;100794.19;5090384;28;20510;-69
2023/06/25 07:57:35;;;;;;;3.33;1.08;;;;;;;26.74;45.87;100792.41;5082623;28;20028;-69
2023/06/25 08:00:00;;;;;;;1.17;0.90;;;;;;;26.89;45.24;100783.84;5085931;28;20044;-69
2023/06/25 08:02:26;;;;;;;1.88;1.25;;;;;;;27.03;45.49;100786.97;5089563;28;20043;-69
2023/06/25 08:04:52;;;;;;;1.42;1.15;;;;;;;27.03;45.60;100789.66;5085929;28;20032;-68
2023/06/25 08:07:17;;;;;;;1.33;0.82;;;;;;;27.12;45.77;100790.06;5090877;28;20040;-68
2023/06/25 08:09:44;;;;;;;1.38;1.08;;;;;;;27.15;45.56;100782.34;5082104;28;20462;-69
2023/06/25 08:12:10;;;;;;;2.53;1.20;;;;;;;27.39;44.61;100786.44;5091775;28;20099;-69
2023/06/25 08:14:36;;;;;;;3.10;1.02;;;;;;;27.33;45.42;100774.06;5090927;28;20063;-69
2023/06/25 08:17:01;;;;;;;4.05;1.17;;;;;;;27.32;44.80;100776.97;5093698;28;20031;-69
2023/06/25 08:19:27;;;;;;;1.63;1.02;;;;;;;27.38;44.05;100776.00;5090249;28;20043;-69
2023/06/25 08:21:52;;;;;;;2.63;0.93;;;;;;;27.57;43.25;100771.94;5093647;28;20069;-69
2023/06/25 08:24:18;;;;;;;2.08;1.30;;;;;;;27.70;44.55;100779.63;5090763;28;20570;-69
2023/06/25 08:26:43;;;;;;;2.40;1.42;;;;;;;27.62;44.18;100774.69;5087968;28;20033;-69
2023/06/25 08:29:08;;;;;;;1.73;1.20;;;;;;;27.63;43.43;100779.00;5081674;28;20395;-70
2023/06/25 08:31:34;;;;;;;1.77;1.10;;;;;;;27.75;42.96;100773.50;5087846;28;20317;-69
2023/06/25 08:33:59;;;;;;;2.40;1.80;;;;;;;27.77;42.80;100771.41;5093061;28;20061;-69
2023/06/25 08:36:25;;;;;;;1.52;1.35;;;;;;;28.00;42.73;100775.66;5089257;28;20032;-70
2023/06/25 08:38:50;;;;;;;2.35;1.70;;;;;;;28.23;43.24;100769.22;5089727;28;20043;-69
2023/06/25 08:41:16;;;;;;;1.40;0.77;;;;;;;28.29;44.20;100762.84;5085154;28;20029;-69
2023/06/25 08:43:41;;;;;;;1.83;1.17;;;;;;;28.41;43.81;100760.78;5075678;28;20035;-69
2023/06/25 08:46:08;;;;;;;1.92;1.48;;;;;;;28.36;43.82;100766.09;5092717;28;20032;-69
2023/06/25 08:48:36;;;;;;;1.50;1.10;;;;;;;28.24;44.46;100762.78;5088778;28;20112;-69
2023/06/25 08:51:08;;;;;;;2.08;1.38;;;;;;;28.08;43.96;100764.47;5087784;28;20184;-69
2023/06/25 08:53:34;;;;;;;2.28;1.23;;;;;;;28.12;44.64;100762.09;5087627;28;20073;-70
2023/06/25 08:56:03;;;;;;;1.40;0.93;;;;;;;28.39;44.15;100760.22;5085192;28;20032;-69
2023/06/25 08:58:29;;;;;;;2.42;1.23;;;;;;;28.54;44.15;100762.22;5084865;28;20120;-68
2023/06/25 09:00:54;;;;;;;3.28;1.20;;;;;;;28.20;44.02;100754.44;5092493;28;20020;-69
2023/06/25 09:03:20;;;;;;;1.98;1.17;;;;;;;28.42;43.20;100754.34;5079537;28;20082;-68
2023/06/25 09:05:55;;;;;;;2.17;1.42;;;;;;;28.58;43.80;100756.09;5090179;28;20503;-69
2023/06/25 09:08:26;;;;;;;6.63;1.45;;;;;;;28.51;42.80;100746.66;5090504;28;20556;-70
2023/06/25 09:10:56;;;;;;;1.42;1.10;;;;;;;28.57;42.89;100751.81;5079951;28;20472;-69
2023/06/25 09:13:27;;;;;;;1.60;1.23;;;;;;;28.71;42.25;100741.47;5092267;28;20054;-70
2023/06/25 09:15:59;;;;;;;3.00;1.30;;;;;;;28.49;41.71;100738.06;5090320;28;20119;-69
2023/06/25 09:18:25;;;;;;;2.13;1.25;;;;;;;28.72;41.41;100735.03;5091164;28;20514;-69
2023/06/25 09:20:50;;;;;;;3.28;1.42;;;;;;;28.45;40.54;100737.78;5089435;28;20067;-70
2023/06/25 09:23:23;;;;;;;3.55;1.33;;;;;;;28.33;40.02;100739.84;5091923;28;20112;-69
2023/06/25 09:25:53;;;;;;;2.53;1.40;;;;;;;28.38;41.82;100737.19;5085016;28;20017;-69
2023/06/25 09:28:19;;;;;;;1.80;1.30;;;;;;;28.60;42.12;100737.09;5078900;28;20036;-69
2023/06/25 09:30:45;;;;;;;2.08;1.02;;;;;;;28.72;41.03;100735.84;5067635;28;20043;-70
2023/06/25 09:33:11;;;;;;;2.92;1.27;;;;;;;28.40;41.67;100737.72;5091929;28;20031;-68
2023/06/25 09:35:38;;;;;;;2.00;1.45;;;;;;;28.05;42.25;100733.66;5086437;28;20036;-69
2023/06/25 09:38:03;;;;;;;2.17;1.35;;;;;;;28.27;42.16;100730.94;5091770;28;20020;-68
2023/06/25 09:40:29;;;;;;;3.65;1.58;;;;;;;28.61;42.13;100726.13;5079752;28;20031;-68
2023/06/25 09:42:56;;;;;;;4.03;1.27;;;;;;;28.38;41.86;100727.25;5071842;28;20020;-69
2023/06/25 09:45:23;;;;;;;3.65;1.17;;;;;;;28.24;41.75;100722.63;5084116;28;20117;-69
2023/06/25 09:47:50;;;;;;;2.83;1.30;;;;;;;28.59;41.43;100717.50;5091246;28;20115;-69
2023/06/25 09:50:27;;;;;;;3.22;1.20;;;;;;;28.42;41.25;100708.81;5089370;28;20027;-69
2023/06/25 09:52:58;;;;;;;1.95;1.30;;;;;;;28.55;41.80;100712.94;5085946;28;20036;-68
2023/06/25 09:55:26;;;;;;;2.75;1.70;;;;;;;28.13;42.09;100708.28;5084452;28;20028;-69
2023/06/25 09:57:53;;;;;;;3.33;1.35;;;;;;;28.15;42.37;100708.03;5083700;28;20024;-69
2023/06/25 10:00:21;;;;;;;1.40;1.25;;;;;;;28.20;41.73;100705.41;5089200;28;20028;-69
2023/06/25 10:02:47;;;;;;;1.70;1.35;;;;;;;28.09;42.29;100694.59;5077276;28;20025;-69
2023/06/25 10:05:13;;;;;;;1.48;1.20;;;;;;;28.21;42.92;100701.66;5071820;28;20039;-69
2023/06/25 10:07:39;;;;;;;2.45;1.52;;;;;;;28.56;41.82;100699.28;5088844;28;20044;-68
2023/06/25 10:10:06;;;;;;;2.60;1.65;;;;;;;28.83;42.30;100703.78;5084575;28;20040;-68
2023/06/25 10:12:38;;;;;;;2.88;1.73;;;;;;;29.18;42.31;100695.88;5064254;28;20480;-68
2023/06/25 10:15:04;;;;;;;4.93;1.58;;;;;;;29.31;41.86;100703.44;5091024;28;20031;-69
2023/06/25 10:17:30;;;;;;;2.15;1.38;;;;;;;28.88;41.98;100698.41;5087676;28;20028;-69
2023/06/25 10:19:58;;;;;;;2.58;1.63;;;;;;;28.79;42.24;100694.59;5079257;28;20067;-69
2023/06/25 10:22:25;;;;;;;2.15;1.45;;;;;;;28.65;42.56;100691.56;5087233;28;20035;-69
2023/06/25 10:24:52;;;;;;;2.17;1.50;;;;;;;28.91;42.45;100692.53;5083772;28;20111;-70
2023/06/25 10:27:21;;;;;;;1.95;1.48;;;;;;;28.89;42.12;100705.38;5061160;28;20082;-69
2023/06/25 10:29:47;;;;;;;6.45;1.40;;;;;;;29.05;41.73;100693.69;5071447;28;20036;-69
2023/06/25 10:32:12;;;;;;;2.80;1.50;;;;;;;29.20;40.54;100696.44;5089011;28;20035;-70
2023/06/25 10:34:39;;;;;;;2.53;1.60;;;;;;;29.08;39.90;100682.44;5087022;28;20036;-70
2023/06/25 10:37:05;;;;;;;4.90;1.38;;;;;;;29.20;40.41;100688.38;5084299;28;20043;-69
2023/06/25 10:39:38;;;;;;;2.88;1.65;;;;;;;29.00;39.26;100686.41;5087464;28;20062;-69
2023/06/25 10:42:04;;;;;;;2.47;1.70;;;;;;;29.03;40.42;100677.03;5074501;28;20025;-69
2023/06/25 10:44:32;;;;;;;2.60;1.55;;;;;;;29.28;41.61;100677.16;5083081;28;20031;-69
2023/06/25 10:47:07;;;;;;;1.80;1.55;;;;;;;29.39;41.58;100677.97;5090841;28;20061;-70
2023/06/25 10:49:34;;;;;;;3.10;1.33;;;;;;;29.14;40.94;100665.28;5089192;28;20043;-69
2023/06/25 10:52:01;;;;;;;2.90;1.27;;;;;;;28.98;40.51;100669.78;5085805;28;20055;-69
2023/06/25 10:54:26;;;;;;;2.17;1.73;;;;;;;28.52;40.72;100663.31;5078750;28;20028;-70
2023/06/25 10:57:15;;;;;;;3.90;1.85;;;;;;;28.17;40.06;100660.38;5088575;28;20028;-69
2023/06/25 10:59:44;;;;;;;1.67;1.50;;;;;;;28.03;41.07;100652.75;5082792;28;20039;-69
2023/06/25 11:02:18;;;;;;;2.50;1.60;;;;;;;27.96;41.18;100651.34;5090993;28;20036;-69
2023/06/25 11:04:52;;;;;;;3.30;1.60;;;;;;;28.04;41.30;100651.69;5085549;28;20438;-69
2023/06/25 11:07:21;;;;;;;11.15;2.28;;;;;;;28.21;41.55;100645.41;5088024;28;20468;-70
2023/06/25 11:09:52;;;;;;;2.92;2.00;;;;;;;28.41;40.24;100640.19;5084482;28;20448;-70
2023/06/25 11:12:17;;;;;;;2.58;1.48;;;;;;;28.32;40.98;100637.22;5077123;28;20035;-70
2023/06/25 11:14:44;;;;;;;2.40;1.50;;;;;;;28.34;40.82;100637.78;5080215;28;20161;-69
2023/06/25 11:17:10;;;;;;;2.75;1.65;;;;;;;28.44;41.19;100639.69;5065036;28;20032;-69
2023/06/25 11:19:35;;;;;;;2.55;1.67;;;;;;;28.17;40.91;100634.41;5067558;28;20093;-69
2023/06/25 11:22:05;;;;;;;7.93;2.28;;;;;;;28.04;41.25;100629.47;5089264;28;20070;-68